SBOSBO FLR / LIRQ
Speedbird OnlineSpeedbird Online FLR / LIRQ

Peretola Airport
22:29 16°C

Location Florence, Italy
Latitude: 43.810001
Longitude: 11.2051
Web Airport Website | Wikipedia
Altitude 43 Meter / 142 Feet
Distance 1,189 KM / 739 Miles
from London.
Time Zone UTC +2 hours (Europe/Rome)
Codes IATA: FLR
ICAO: LIRQ
Currency £1 equals EUR 1.12
Runways
RunwayLength (m)Surface
051560Asphalt
231560Asphalt
Radio
TypeDescriptionFrequency
APPAPP126.075
ATISATIS129.35
TWRFIRENZE TWR118.3
Live ATC
METAR LIRQ 241950Z 12005KT 8000 SHRA FEW025 SCT040 BKN060 16/16 Q1013
TAF TAF LIRQ 241700Z 2418/2518 VRB05KT 9999 BKN030 TEMPO 2418/2422 4000 SHRA TEMPO 2422/2506 4000 TSRA TEMPO 2510/2512 SHRA
Weather As Of 24 Sep 2022 22:27
Description Shower rain
Wind 9 km/h from South-East (120°)
Cloud Cover 75%
Precipitation Rain: none, Snow: none
Sunrise 07:04
Sunset 19:10
Lounges Aeroporti VIP Club , Main Building
Rotations During the last 90 days there were
159 flights from LCY
33 flights from EDI
155 flights to LCY
33 flights to EDI


© 2017-2022 Speedbird Online